Time;durP1;ratioP1;P1;durP2;ratioP2;P2;SDS_P1;SDS_P2;PMS_P1;PMS_P2;Temp;Humidity;BMP_temperature;BMP_pressure;BME280_temperature;BME280_humidity;BME280_pressure;Samples;Min_cycle;Max_cycle;Signal;HPM_P1;HPM_P2
2021/01/14 00:00:44;;;;;;;9.30;6.40;;;;;;;3.82;60.81;97236.16;8467022;28;20198;-73
2021/01/14 00:04:46;;;;;;;8.67;5.80;;;;;;;4.04;60.88;97243.22;8466830;28;20201;-73
2021/01/14 00:08:48;;;;;;;8.43;6.30;;;;;;;4.00;60.92;97242.47;8467880;28;20233;-72
2021/01/14 00:12:49;;;;;;;9.30;6.43;;;;;;;4.02;60.98;97237.31;8466710;28;20252;-71
2021/01/14 00:16:52;;;;;;;9.90;6.53;;;;;;;3.94;60.98;97250.34;8466074;28;20198;-72
2021/01/14 00:20:54;;;;;;;8.90;5.90;;;;;;;4.11;60.92;97255.81;8466716;28;20197;-72
2021/01/14 00:24:56;;;;;;;9.27;6.93;;;;;;;3.90;61.55;97264.09;8465329;28;20198;-73
2021/01/14 00:28:57;;;;;;;9.90;6.70;;;;;;;4.05;61.12;97250.84;8465417;28;20213;-73
2021/01/14 00:33:00;;;;;;;12.00;6.57;;;;;;;4.00;61.48;97264.69;8466081;28;20221;-73
2021/01/14 00:41:22;;;;;;;9.53;6.70;;;;;;;4.25;60.56;97270.75;8466614;28;20518;-72
2021/01/14 00:45:24;;;;;;;10.80;7.00;;;;;;;4.21;60.69;97274.31;8466221;28;20202;-73
2021/01/14 00:49:27;;;;;;;9.10;6.53;;;;;;;4.24;61.10;97268.25;8464908;28;20209;-72
2021/01/14 00:53:29;;;;;;;9.83;7.10;;;;;;;4.14;61.29;97277.94;8465134;28;20221;-72
2021/01/14 00:57:30;;;;;;;9.17;6.70;;;;;;;4.33;60.54;97278.22;8466395;28;20244;-72
2021/01/14 01:01:33;;;;;;;9.57;6.53;;;;;;;4.29;60.56;97276.66;8465172;28;20225;-72
2021/01/14 01:05:36;;;;;;;10.03;6.43;;;;;;;4.27;60.68;97268.16;8464595;28;20205;-72
2021/01/14 01:09:37;;;;;;;8.93;6.97;;;;;;;4.18;61.04;97283.81;8464874;28;20202;-72
2021/01/14 01:13:39;;;;;;;9.43;6.03;;;;;;;4.20;61.46;97282.03;8463556;28;20229;-72
2021/01/14 01:17:41;;;;;;;7.97;5.90;;;;;;;4.26;61.06;97281.84;8464488;28;20602;-72
2021/01/14 01:21:43;;;;;;;8.37;6.07;;;;;;;4.09;61.62;97298.59;8463803;28;20201;-73
2021/01/14 01:25:45;;;;;;;11.13;6.53;;;;;;;4.18;61.44;97307.72;8465120;28;20206;-72
2021/01/14 01:29:47;;;;;;;11.60;6.10;;;;;;;4.15;61.69;97322.34;8463969;28;20636;-72
2021/01/14 01:33:49;;;;;;;10.67;7.00;;;;;;;3.78;64.40;97346.44;8464099;28;20229;-72
2021/01/14 01:37:51;;;;;;;10.70;6.87;;;;;;;3.90;66.05;97375.13;8464119;28;20213;-72
2021/01/14 01:41:56;;;;;;;5.87;3.90;;;;;;;3.82;67.19;97371.06;8463356;28;20227;-72
2021/01/14 01:46:00;;;;;;;7.67;4.43;;;;;;;4.03;66.27;97357.66;8465003;28;20610;-73
2021/01/14 01:50:04;;;;;;;8.07;5.30;;;;;;;4.02;65.63;97363.69;8463081;28;20202;-72
2021/01/14 01:54:08;;;;;;;5.73;3.40;;;;;;;3.87;63.69;97361.56;8464206;28;20225;-73
2021/01/14 01:58:11;;;;;;;5.63;2.33;;;;;;;3.81;62.47;97365.13;8464260;28;20786;-72
2021/01/14 02:02:20;;;;;;;8.07;2.50;;;;;;;3.75;62.22;97375.53;8463737;28;20197;-72
2021/01/14 02:06:22;;;;;;;5.23;2.40;;;;;;;3.75;62.82;97380.66;8463846;28;20206;-73
2021/01/14 02:10:30;;;;;;;4.90;2.77;;;;;;;3.77;62.69;97381.44;8463543;28;20205;-72
2021/01/14 02:14:33;;;;;;;5.73;2.80;;;;;;;3.74;62.90;97391.75;8462810;28;20222;-72
2021/01/14 02:18:35;;;;;;;4.60;2.90;;;;;;;3.73;62.36;97387.50;8462705;28;20205;-72
2021/01/14 02:22:39;;;;;;;5.60;2.80;;;;;;;3.74;62.37;97404.56;8462616;28;20198;-72
2021/01/14 02:26:43;;;;;;;5.70;2.90;;;;;;;3.62;62.01;97410.03;8463137;28;20204;-72
2021/01/14 02:30:44;;;;;;;3.90;2.30;;;;;;;3.47;61.94;97409.50;8463061;28;20205;-72
2021/01/14 02:34:49;;;;;;;6.47;2.80;;;;;;;3.52;60.92;97401.72;8462996;28;20282;-73
2021/01/14 02:38:52;;;;;;;5.70;2.50;;;;;;;3.38;60.79;97406.34;8462419;28;20202;-72
2021/01/14 02:42:54;;;;;;;5.87;2.40;;;;;;;3.52;60.88;97411.94;8462852;28;20198;-72
2021/01/14 02:46:56;;;;;;;4.70;2.13;;;;;;;3.37;60.35;97418.31;8463399;28;20198;-73
2021/01/14 02:51:01;;;;;;;4.33;2.10;;;;;;;3.44;60.35;97421.53;8468362;28;20206;-72
2021/01/14 02:55:04;;;;;;;5.40;2.10;;;;;;;3.39;59.74;97431.03;8468933;28;20229;-73
2021/01/14 02:59:09;;;;;;;4.20;1.93;;;;;;;3.44;58.88;97431.78;8469879;28;20194;-73
2021/01/14 03:03:11;;;;;;;5.30;1.90;;;;;;;3.30;58.44;97427.00;8482946;27;20224;-72
2021/01/14 03:07:14;;;;;;;5.00;1.63;;;;;;;3.31;57.73;97436.34;8503554;27;20291;-72
2021/01/14 03:11:16;;;;;;;5.40;1.83;;;;;;;3.25;57.27;97449.31;8502587;27;20240;-72
2021/01/14 03:15:19;;;;;;;4.97;1.60;;;;;;;3.20;56.51;97454.53;8502545;27;20305;-72
2021/01/14 03:19:20;;;;;;;7.23;1.70;;;;;;;3.15;55.98;97450.41;8502471;27;20200;-73
2021/01/14 03:23:22;;;;;;;5.03;1.53;;;;;;;2.92;55.94;97442.34;8503151;27;20208;-72
2021/01/14 03:27:24;;;;;;;6.87;1.70;;;;;;;2.93;56.10;97438.94;8503295;27;20204;-73
2021/01/14 03:31:26;;;;;;;4.80;1.70;;;;;;;3.02;55.38;97453.22;8500560;27;20301;-73
2021/01/14 03:35:28;;;;;;;4.77;1.63;;;;;;;3.12;55.11;97449.59;8502174;27;20229;-72
2021/01/14 03:39:30;;;;;;;4.70;1.40;;;;;;;3.11;54.67;97450.47;8501065;27;20208;-72
2021/01/14 03:43:32;;;;;;;6.47;1.40;;;;;;;2.93;54.44;97461.97;8501606;27;20197;-72
2021/01/14 03:47:35;;;;;;;7.50;1.60;;;;;;;2.80;54.26;97464.78;8501056;27;20197;-72
2021/01/14 03:51:39;;;;;;;4.87;1.63;;;;;;;2.83;54.33;97468.13;8502442;27;20182;-73
2021/01/14 03:55:41;;;;;;;6.07;1.50;;;;;;;2.96;54.05;97480.66;8501371;27;20255;-72
2021/01/14 03:59:43;;;;;;;8.77;1.97;;;;;;;2.92;54.42;97478.16;8498911;27;20284;-72
2021/01/14 04:03:46;;;;;;;7.07;1.60;;;;;;;2.81;54.69;97479.28;8500514;27;20215;-72
2021/01/14 04:07:48;;;;;;;5.23;1.40;;;;;;;2.87;54.39;97484.25;8501556;27;20528;-72
2021/01/14 04:11:49;;;;;;;6.70;1.63;;;;;;;2.74;54.67;97502.41;8501301;27;20220;-73
2021/01/14 04:15:51;;;;;;;5.07;1.47;;;;;;;2.85;55.05;97503.91;8501283;27;20251;-72
2021/01/14 04:19:54;;;;;;;7.70;1.47;;;;;;;2.89;55.06;97510.63;8499912;27;20216;-72
2021/01/14 04:23:56;;;;;;;5.13;1.47;;;;;;;3.04;54.71;97514.59;8501358;27;20212;-72
2021/01/14 04:27:59;;;;;;;6.10;1.33;;;;;;;3.16;54.75;97519.47;8500275;27;20193;-72
2021/01/14 04:32:01;;;;;;;4.73;1.47;;;;;;;2.97;54.40;97518.16;8500191;27;20219;-72
2021/01/14 04:36:04;;;;;;;3.93;1.33;;;;;;;3.10;54.56;97528.09;8499208;27;20220;-72
2021/01/14 04:40:08;;;;;;;4.60;1.43;;;;;;;3.11;54.92;97542.56;8500538;27;20492;-72
2021/01/14 04:44:10;;;;;;;5.07;1.63;;;;;;;3.01;55.15;97533.41;8500902;27;20204;-72
2021/01/14 04:48:12;;;;;;;4.07;1.40;;;;;;;2.96;55.15;97531.81;8499700;27;20197;-72
2021/01/14 04:52:16;;;;;;;4.60;1.97;;;;;;;3.03;55.29;97539.34;8499249;27;20253;-72
2021/01/14 04:56:19;;;;;;;7.10;1.50;;;;;;;3.12;54.91;97534.03;8498500;27;20233;-72
2021/01/14 05:00:25;;;;;;;5.63;1.90;;;;;;;3.30;54.58;97532.78;8500162;27;20201;-72
2021/01/14 05:04:30;;;;;;;5.30;1.60;;;;;;;3.10;55.10;97534.91;8497758;27;20201;-72
2021/01/14 05:08:34;;;;;;;6.17;1.80;;;;;;;3.14;54.43;97544.22;8499398;27;20531;-72
2021/01/14 05:12:36;;;;;;;5.50;1.70;;;;;;;3.06;53.98;97552.06;8498699;27;20232;-72
2021/01/14 05:16:37;;;;;;;6.13;1.60;;;;;;;2.88;54.75;97553.28;8498079;27;20364;-72
2021/01/14 05:20:39;;;;;;;5.73;1.80;;;;;;;2.91;54.20;97567.72;8499161;27;20243;-72
2021/01/14 05:25:05;;;;;;;5.17;1.43;;;;;;;2.84;53.57;97574.69;8497802;27;20204;-72
2021/01/14 05:29:14;;;;;;;6.40;1.50;;;;;;;2.87;54.29;97571.22;8497781;27;20186;-72
2021/01/14 05:33:18;;;;;;;8.10;1.67;;;;;;;2.93;53.42;97571.09;8497286;27;20204;-73
2021/01/14 05:37:20;;;;;;;6.07;1.30;;;;;;;2.84;53.65;97589.19;8497574;27;20201;-72
2021/01/14 05:41:28;;;;;;;6.07;1.70;;;;;;;2.89;53.63;97585.66;8498638;27;20262;-72
2021/01/14 05:45:30;;;;;;;4.33;1.43;;;;;;;2.83;54.00;97590.06;8498434;27;20219;-72
2021/01/14 05:49:32;;;;;;;4.37;1.17;;;;;;;2.87;53.80;97589.94;8499227;27;20629;-73
2021/01/14 05:53:37;;;;;;;4.93;1.47;;;;;;;2.83;53.28;97595.16;8497773;27;20220;-72
2021/01/14 05:57:40;;;;;;;4.50;1.20;;;;;;;2.96;53.58;97611.13;8497577;27;20324;-72
2021/01/14 06:01:53;;;;;;;7.13;1.50;;;;;;;2.95;53.64;97625.59;8498559;27;20228;-72
2021/01/14 06:05:56;;;;;;;6.27;1.60;;;;;;;3.01;53.76;97625.50;8496962;28;20185;-72
2021/01/14 06:09:58;;;;;;;5.50;1.30;;;;;;;3.02;53.46;97623.78;8498042;28;20201;-72
2021/01/14 06:14:01;;;;;;;5.27;1.47;;;;;;;2.92;53.01;97629.06;8497594;28;20269;-72
2021/01/14 06:18:08;;;;;;;5.13;1.73;;;;;;;2.87;53.47;97630.88;8497696;28;20200;-73
2021/01/14 06:22:15;;;;;;;4.17;1.50;;;;;;;2.87;53.53;97650.50;8497984;27;20193;-72
2021/01/14 06:26:26;;;;;;;8.50;1.70;;;;;;;2.80;53.43;97656.59;8504866;27;20200;-72
2021/01/14 06:30:29;;;;;;;8.70;1.90;;;;;;;2.74;53.78;97658.41;8503859;27;20197;-72
2021/01/14 06:34:32;;;;;;;7.20;1.80;;;;;;;2.87;54.11;97658.16;8504443;27;20660;-73
2021/01/14 06:38:41;;;;;;;5.70;1.67;;;;;;;2.86;53.75;97664.19;8504461;27;20193;-73
2021/01/14 06:42:48;;;;;;;5.33;1.80;;;;;;;2.88;53.96;97667.53;8501404;27;20197;-73
2021/01/14 06:46:52;;;;;;;8.77;1.80;;;;;;;2.92;53.85;97681.97;8504373;27;20189;-73
2021/01/14 06:51:03;;;;;;;17.73;2.00;;;;;;;6.29;88.12;97691.59;8502175;27;20208;-75
2021/01/14 06:55:06;;;;;;;13.83;2.20;;;;;;;7.69;54.81;97692.00;8503855;27;20248;-76
2021/01/14 06:59:09;;;;;;;9.80;1.93;;;;;;;8.28;47.37;97700.94;8519109;22;20641;-80
2021/01/14 07:03:22;;;;;;;5.87;2.20;;;;;;;6.25;45.70;97715.75;8392132;28;20678;-78
2021/01/14 07:07:30;;;;;;;7.23;1.83;;;;;;;5.12;47.81;97727.47;8373000;28;20208;-77
2021/01/14 07:11:34;;;;;;;5.90;1.57;;;;;;;4.97;48.84;97739.00;8385206;28;20216;-76
2021/01/14 07:15:41;;;;;;;6.23;1.77;;;;;;;4.78;49.41;97744.59;8369493;28;20231;-77
2021/01/14 07:19:44;;;;;;;5.30;1.87;;;;;;;4.58;49.41;97755.31;8379542;28;20204;-77
2021/01/14 07:23:50;;;;;;;4.77;1.70;;;;;;;4.40;50.44;97760.88;8369109;28;20579;-75
2021/01/14 07:27:52;;;;;;;4.80;2.00;;;;;;;4.75;48.96;97766.91;8397294;28;20416;-77
2021/01/14 07:31:55;;;;;;;8.10;2.00;;;;;;;4.09;50.82;97774.38;8384635;28;20200;-77
2021/01/14 07:36:16;;;;;;;3.43;1.20;;;;;;;4.18;50.19;97775.91;8369226;28;20219;-77
2021/01/14 07:40:27;;;;;;;4.97;1.60;;;;;;;4.01;50.85;97794.19;8368228;28;20230;-77
2021/01/14 07:44:29;;;;;;;6.13;1.80;;;;;;;3.87;51.46;97791.94;8393630;28;20790;-76
2021/01/14 07:48:33;;;;;;;5.50;1.63;;;;;;;3.68;51.39;97796.56;8402203;28;20682;-76
2021/01/14 07:52:36;;;;;;;5.97;1.90;;;;;;;3.58;51.61;97790.78;8395910;28;20210;-76
2021/01/14 07:56:46;;;;;;;8.27;2.17;;;;;;;3.65;52.21;97784.66;8399878;28;20219;-76
2021/01/14 08:01:05;;;;;;;5.97;1.50;;;;;;;3.60;52.27;97794.16;8401137;28;20234;-76
2021/01/14 08:05:08;;;;;;;8.13;1.93;;;;;;;3.40;52.45;97793.69;8406228;28;20204;-76
2021/01/14 08:09:11;;;;;;;4.80;1.87;;;;;;;3.37;52.60;97801.41;8416218;28;20195;-76
2021/01/14 08:13:12;;;;;;;6.13;2.00;;;;;;;3.47;52.45;97802.94;8401851;28;20223;-77
2021/01/14 08:17:26;;;;;;;6.40;1.87;;;;;;;3.59;52.52;97812.94;8400603;28;20262;-76
2021/01/14 08:21:29;;;;;;;8.20;1.70;;;;;;;3.60;52.52;97814.66;8398030;28;20547;-77
2021/01/14 08:25:47;;;;;;;6.00;2.20;;;;;;;3.86;52.06;97821.81;8401063;28;20639;-77
2021/01/14 08:29:51;;;;;;;7.57;2.23;;;;;;;3.77;52.27;97827.13;8404536;28;20242;-77
2021/01/14 08:33:55;;;;;;;5.77;2.17;;;;;;;3.94;51.89;97841.31;8400997;28;20234;-76
2021/01/14 08:37:57;;;;;;;5.53;1.60;;;;;;;3.78;51.86;97849.31;8398589;28;20227;-77
2021/01/14 08:42:11;;;;;;;6.60;1.93;;;;;;;3.87;51.95;97858.53;8401476;28;20203;-77
2021/01/14 08:46:12;;;;;;;5.50;1.90;;;;;;;4.05;51.79;97862.44;8387633;28;20204;-76
2021/01/14 08:50:15;;;;;;;6.23;1.70;;;;;;;4.06;51.96;97874.41;8381913;28;20201;-78
2021/01/14 08:54:20;;;;;;;5.20;1.90;;;;;;;4.04;52.00;97877.00;8399693;28;20214;-78
2021/01/14 08:58:35;;;;;;;5.77;1.77;;;;;;;4.05;51.46;97878.66;8400008;28;20675;-76
2021/01/14 09:02:37;;;;;;;7.53;2.33;;;;;;;4.42;50.67;97887.34;8395876;28;20467;-77
2021/01/14 09:06:40;;;;;;;8.53;2.20;;;;;;;4.04;51.75;97887.25;8367299;28;20200;-75
2021/01/14 09:10:44;;;;;;;4.03;1.67;;;;;;;4.00;51.83;97902.69;8377100;28;20191;-76
2021/01/14 09:14:47;;;;;;;8.67;2.23;;;;;;;4.14;51.46;97907.56;8381608;28;20231;-76
2021/01/14 09:18:48;;;;;;;8.10;2.20;;;;;;;3.88;52.62;97909.75;8366237;28;20200;-76
2021/01/14 09:22:50;;;;;;;6.30;2.20;;;;;;;4.19;51.58;97919.41;8391068;28;20195;-76
2021/01/14 09:26:52;;;;;;;7.83;2.57;;;;;;;4.13;51.85;97929.78;8397501;28;20199;-77
2021/01/14 09:30:56;;;;;;;7.13;2.63;;;;;;;4.16;51.69;97932.28;8398336;28;20226;-77
2021/01/14 09:35:12;;;;;;;6.27;2.10;;;;;;;4.24;51.46;97943.22;8399384;28;20219;-77
2021/01/14 09:39:15;;;;;;;8.13;2.50;;;;;;;4.14;51.18;97946.00;8376392;28;20216;-77
2021/01/14 09:43:17;;;;;;;7.33;2.07;;;;;;;4.35;50.89;97942.19;8385868;28;20195;-77
2021/01/14 09:47:19;;;;;;;7.10;2.77;;;;;;;4.47;51.20;97944.50;8399451;28;20211;-77
2021/01/14 09:51:21;;;;;;;6.10;2.43;;;;;;;4.35;51.26;97952.44;8399324;28;20195;-75
2021/01/14 09:55:24;;;;;;;6.57;2.20;;;;;;;4.48;50.70;97949.59;8398682;28;20560;-76
2021/01/14 09:59:28;;;;;;;5.77;1.80;;;;;;;4.47;50.64;97949.63;8403288;28;20559;-77
2021/01/14 10:03:31;;;;;;;9.07;2.30;;;;;;;4.72;50.37;97967.09;8433342;28;20211;-76
2021/01/14 10:07:35;;;;;;;3.87;2.00;;;;;;;4.62;50.50;97971.56;8434558;28;20210;-77
2021/01/14 10:11:37;;;;;;;8.10;2.50;;;;;;;4.55;51.26;97982.81;8403822;28;20219;-77
2021/01/14 10:15:39;;;;;;;7.70;2.20;;;;;;;4.40;51.62;97983.94;8401805;28;20225;-77
2021/01/14 10:19:46;;;;;;;5.70;2.07;;;;;;;4.34;51.91;97992.63;8398031;28;20195;-77
2021/01/14 10:23:47;;;;;;;6.30;2.50;;;;;;;4.47;51.73;97977.84;8412542;28;20191;-77
2021/01/14 10:27:59;;;;;;;7.07;2.47;;;;;;;4.49;51.64;97978.66;8420101;28;20238;-78
2021/01/14 10:32:02;;;;;;;5.70;2.13;;;;;;;4.44;51.35;97983.03;8408064;28;20244;-77
2021/01/14 10:36:05;;;;;;;4.50;2.30;;;;;;;4.50;51.81;97995.75;8426961;28;20241;-78
2021/01/14 10:40:17;;;;;;;6.33;2.30;;;;;;;4.33;52.29;97995.22;8428665;28;20199;-78
2021/01/14 10:44:24;;;;;;;4.27;1.97;;;;;;;4.30;52.33;97998.66;8400275;28;20663;-78
2021/01/14 10:48:36;;;;;;;4.67;2.20;;;;;;;4.38;52.01;98003.66;8394564;28;20254;-76
2021/01/14 10:52:54;;;;;;;8.97;1.70;;;;;;;4.30;52.93;97999.53;8388243;28;20286;-76
2021/01/14 10:56:56;;;;;;;5.67;2.10;;;;;;;4.28;52.81;97996.16;8397959;28;20219;-76
2021/01/14 11:00:57;;;;;;;5.20;2.20;;;;;;;4.04;53.16;97999.16;8397695;28;20678;-76
2021/01/14 11:05:16;;;;;;;6.30;2.40;;;;;;;4.42;52.77;97993.31;8386060;28;20199;-76
2021/01/14 11:09:18;;;;;;;4.60;2.00;;;;;;;4.53;52.13;97997.38;8400726;28;20211;-77
2021/01/14 11:13:35;;;;;;;5.80;2.40;;;;;;;4.86;50.98;98006.16;8395437;28;20216;-76
2021/01/14 11:17:38;;;;;;;6.80;2.07;;;;;;;5.14;50.04;97996.13;8376471;28;20223;-77
2021/01/14 11:21:42;;;;;;;4.37;2.23;;;;;;;5.54;49.84;97996.94;8374789;28;20251;-77
2021/01/14 11:25:44;;;;;;;3.67;1.80;;;;;;;5.28;49.80;97993.25;8372704;28;20203;-77
2021/01/14 11:29:46;;;;;;;4.37;2.20;;;;;;;5.42;50.24;97998.06;8371765;28;20192;-77
2021/01/14 11:33:48;;;;;;;5.50;2.37;;;;;;;5.07;50.55;98000.53;8371871;28;20196;-77
2021/01/14 11:37:50;;;;;;;5.10;2.00;;;;;;;5.20;49.89;98005.44;8371611;28;20199;-77
2021/01/14 11:41:53;;;;;;;4.80;2.37;;;;;;;5.22;50.80;97995.97;8371426;28;20200;-77
2021/01/14 11:45:55;;;;;;;6.03;2.67;;;;;;;5.43;50.71;98002.34;8372039;28;20206;-76
2021/01/14 11:49:57;;;;;;;6.27;3.00;;;;;;;4.90;50.63;98016.28;8372178;28;20202;-76
2021/01/14 11:53:58;;;;;;;8.27;3.70;;;;;;;4.93;51.02;98019.69;8385879;28;20670;-77
2021/01/14 11:58:03;;;;;;;6.90;3.03;;;;;;;5.13;51.02;98019.28;8403668;28;20207;-76
2021/01/14 12:02:04;;;;;;;9.87;3.30;;;;;;;5.10;50.58;98022.72;8399856;28;20232;-77
2021/01/14 12:06:06;;;;;;;6.53;2.73;;;;;;;5.02;50.78;98022.06;8368428;28;20203;-76
2021/01/14 12:10:09;;;;;;;5.47;3.13;;;;;;;4.96;50.83;98025.59;8368731;28;20199;-76
2021/01/14 12:14:11;;;;;;;7.53;3.17;;;;;;;5.06;50.70;98018.53;8368529;28;20710;-77
2021/01/14 12:18:13;;;;;;;7.73;3.57;;;;;;;5.20;50.44;98019.09;8383451;28;20187;-76
2021/01/14 12:22:15;;;;;;;7.20;2.97;;;;;;;5.18;50.96;98014.84;8368860;28;20187;-76
2021/01/14 12:26:17;;;;;;;7.60;3.33;;;;;;;4.83;51.80;98019.88;8380448;28;20234;-76
2021/01/14 12:30:21;;;;;;;7.50;3.60;;;;;;;5.15;51.51;98018.34;8395159;28;20195;-77
2021/01/14 12:34:23;;;;;;;5.87;3.40;;;;;;;5.00;51.38;98016.13;8379486;28;20297;-77
2021/01/14 12:38:24;;;;;;;8.67;2.97;;;;;;;5.01;51.42;98022.94;8400661;28;20639;-77
2021/01/14 12:42:26;;;;;;;5.47;3.27;;;;;;;5.23;50.94;98019.00;8382665;28;20194;-76
2021/01/14 12:46:41;;;;;;;6.33;2.70;;;;;;;5.38;50.79;98017.00;8378545;28;20200;-77
2021/01/14 12:50:47;;;;;;;6.70;2.97;;;;;;;5.02;51.48;98011.78;8383220;28;20636;-77
2021/01/14 12:54:49;;;;;;;7.17;3.07;;;;;;;5.11;51.04;98016.72;8371077;28;20211;-77
2021/01/14 12:58:51;;;;;;;5.20;2.70;;;;;;;5.03;51.57;98016.06;8392080;28;20520;-77
2021/01/14 13:02:53;;;;;;;4.73;2.93;;;;;;;5.12;50.83;98020.13;8396314;28;20234;-77
2021/01/14 13:06:56;;;;;;;6.23;2.90;;;;;;;5.29;51.06;98021.47;8368145;28;20188;-77
2021/01/14 13:10:58;;;;;;;5.77;2.50;;;;;;;5.06;51.05;98027.09;8393541;28;20191;-77
2021/01/14 13:15:00;;;;;;;9.00;2.90;;;;;;;5.08;51.51;98033.06;8400675;28;20226;-77
2021/01/14 13:19:04;;;;;;;9.77;2.77;;;;;;;4.90;51.73;98026.56;8399770;28;20207;-76
2021/01/14 13:23:05;;;;;;;6.40;2.53;;;;;;;4.96;51.67;98028.16;8399463;28;20198;-77
2021/01/14 13:27:07;;;;;;;7.83;2.70;;;;;;;4.66;52.23;98029.63;8399768;28;20541;-77
2021/01/14 13:31:09;;;;;;;5.90;2.50;;;;;;;4.71;52.52;98027.81;8399589;28;20195;-77
2021/01/14 13:35:12;;;;;;;6.27;2.80;;;;;;;4.98;51.80;98031.53;8398954;28;20248;-77
2021/01/14 13:39:14;;;;;;;6.80;2.40;;;;;;;5.12;52.22;98035.53;8399831;28;20215;-77
2021/01/14 13:43:15;;;;;;;9.07;2.70;;;;;;;5.00;52.57;98031.50;8399397;28;20191;-78
2021/01/14 13:47:17;;;;;;;6.27;2.63;;;;;;;4.87;52.20;98044.59;8400427;28;20207;-78
2021/01/14 13:51:27;;;;;;;6.63;2.30;;;;;;;4.92;52.57;98057.34;8399841;28;20646;-78
2021/01/14 13:55:29;;;;;;;4.53;2.70;;;;;;;4.88;52.35;98051.41;8401146;28;20207;-79
2021/01/14 13:59:33;;;;;;;5.53;2.87;;;;;;;4.84;52.54;98054.94;8389103;28;20223;-77
2021/01/14 14:03:35;;;;;;;5.90;3.13;;;;;;;4.76;52.90;98056.81;8366512;28;20518;-77
2021/01/14 14:07:53;;;;;;;7.47;3.03;;;;;;;5.08;52.74;98058.72;8366016;28;20231;-77
2021/01/14 14:11:55;;;;;;;5.30;2.23;;;;;;;4.98;52.87;98064.06;8379191;28;20223;-77
2021/01/14 14:15:56;;;;;;;5.57;2.80;;;;;;;4.86;53.11;98065.16;8367000;28;20242;-77
2021/01/14 14:19:58;;;;;;;5.57;3.10;;;;;;;4.90;52.72;98066.78;8366065;28;20203;-77
2021/01/14 14:24:03;;;;;;;6.67;3.20;;;;;;;4.98;52.97;98069.19;8366034;28;20203;-77
2021/01/14 14:28:06;;;;;;;5.93;3.20;;;;;;;5.02;52.23;98063.97;8383584;28;20202;-77
2021/01/14 14:32:07;;;;;;;7.20;3.47;;;;;;;5.00;52.44;98057.19;8381013;28;20196;-77
2021/01/14 14:36:10;;;;;;;5.30;2.70;;;;;;;4.82;52.88;98064.38;8378032;28;20691;-77
2021/01/14 14:40:13;;;;;;;6.90;3.73;;;;;;;5.01;52.59;98076.84;8376460;28;20639;-77
2021/01/14 14:44:15;;;;;;;7.87;3.37;;;;;;;4.95;52.65;98070.13;8399701;28;20293;-77
2021/01/14 14:48:16;;;;;;;9.03;3.10;;;;;;;4.90;52.95;98077.06;8405331;28;20244;-76
2021/01/14 14:52:21;;;;;;;7.20;3.60;;;;;;;4.86;53.13;98083.13;8400259;28;20526;-77
2021/01/14 14:56:24;;;;;;;7.17;3.67;;;;;;;4.84;52.85;98084.88;8390308;28;20214;-77
2021/01/14 15:00:27;;;;;;;8.83;3.63;;;;;;;4.89;52.62;98093.31;8404630;28;20234;-77
2021/01/14 15:04:30;;;;;;;6.23;3.40;;;;;;;4.88;52.80;98094.22;8405072;28;20191;-77
2021/01/14 15:08:32;;;;;;;7.20;3.90;;;;;;;4.89;52.80;98101.88;8403569;28;20202;-77
2021/01/14 15:12:34;;;;;;;7.10;3.67;;;;;;;4.84;53.08;98105.41;8404594;28;20214;-77
2021/01/14 15:16:36;;;;;;;8.57;4.40;;;;;;;4.70;53.28;98109.06;8404385;28;20242;-77
2021/01/14 15:20:38;;;;;;;9.63;4.70;;;;;;;4.75;53.46;98111.53;8404268;28;20210;-78
2021/01/14 15:24:41;;;;;;;7.87;4.40;;;;;;;4.83;53.21;98117.38;8404199;28;20195;-78
2021/01/14 15:28:43;;;;;;;8.33;4.57;;;;;;;4.79;53.58;98123.44;8404262;28;20191;-77
2021/01/14 15:32:46;;;;;;;7.40;4.50;;;;;;;4.79;54.03;98126.00;8403608;28;20668;-77
2021/01/14 15:36:47;;;;;;;8.27;4.47;;;;;;;4.90;53.19;98134.34;8403277;28;20226;-77
2021/01/14 15:40:51;;;;;;;7.83;5.00;;;;;;;4.91;53.00;98142.88;8404015;28;20214;-77
2021/01/14 15:44:54;;;;;;;6.63;4.13;;;;;;;4.78;53.05;98137.16;8403226;28;20210;-77
2021/01/14 15:48:56;;;;;;;6.57;3.77;;;;;;;4.84;53.65;98136.19;8403129;28;20202;-78
2021/01/14 15:52:57;;;;;;;7.97;3.80;;;;;;;4.84;53.24;98137.03;8403772;28;20199;-77
2021/01/14 15:56:59;;;;;;;8.57;4.13;;;;;;;4.78;53.35;98136.28;8395838;28;20227;-78
2021/01/14 16:01:03;;;;;;;6.47;3.73;;;;;;;4.82;52.73;98131.09;8404157;28;20219;-77
2021/01/14 16:05:06;;;;;;;7.17;4.07;;;;;;;4.75;53.12;98126.09;8405179;28;20214;-77
2021/01/14 16:09:07;;;;;;;8.23;3.97;;;;;;;4.76;53.46;98138.03;8397977;28;20568;-77
2021/01/14 16:13:09;;;;;;;15.07;6.33;;;;;;;4.76;53.68;98146.59;8369638;28;20216;-77
2021/01/14 16:17:13;;;;;;;11.27;6.07;;;;;;;4.77;53.59;98138.03;8369679;28;20227;-78
2021/01/14 16:21:14;;;;;;;10.73;5.60;;;;;;;4.73;53.99;98143.25;8369211;28;20208;-77
2021/01/14 16:25:16;;;;;;;7.90;4.70;;;;;;;4.60;54.17;98142.59;8369578;28;20199;-78
2021/01/14 16:29:20;;;;;;;9.10;4.73;;;;;;;4.75;54.01;98147.47;8369467;28;20199;-78
2021/01/14 16:33:23;;;;;;;9.37;5.30;;;;;;;4.74;53.89;98145.78;8388310;28;20195;-77
2021/01/14 16:37:24;;;;;;;8.57;4.43;;;;;;;4.68;53.79;98144.19;8400475;28;20215;-77
2021/01/14 16:41:27;;;;;;;12.37;7.20;;;;;;;4.68;54.22;98138.19;8390678;28;20184;-77
2021/01/14 16:45:29;;;;;;;12.13;5.60;;;;;;;4.73;54.08;98138.94;8389466;28;20196;-77
2021/01/14 16:49:32;;;;;;;13.30;8.13;;;;;;;4.57;53.69;98146.09;8384260;28;20191;-77
2021/01/14 16:53:33;;;;;;;16.00;9.47;;;;;;;4.64;54.67;98152.78;8374978;28;20265;-77
2021/01/14 16:57:38;;;;;;;15.07;9.27;;;;;;;4.62;54.58;98151.97;8391145;28;20222;-78
2021/01/14 17:01:42;;;;;;;14.97;9.17;;;;;;;4.66;54.50;98142.50;8418418;28;20266;-77
2021/01/14 17:05:45;;;;;;;18.00;11.20;;;;;;;4.60;54.14;98145.19;8396191;28;20516;-78
2021/01/14 17:09:46;;;;;;;10.63;6.77;;;;;;;4.43;54.31;98148.88;8393733;28;20198;-78
2021/01/14 17:13:50;;;;;;;11.43;6.90;;;;;;;4.58;54.84;98136.66;8401094;28;20524;-78
2021/01/14 17:17:51;;;;;;;12.43;7.57;;;;;;;4.57;54.73;98142.66;8372573;28;20567;-78
2021/01/14 17:21:54;;;;;;;11.00;6.77;;;;;;;4.55;54.93;98147.84;8368196;28;20707;-77
2021/01/14 17:25:58;;;;;;;11.43;8.00;;;;;;;4.54;55.41;98138.44;8368590;28;20199;-78
2021/01/14 17:29:59;;;;;;;11.57;7.40;;;;;;;4.57;55.20;98145.22;8367456;28;20830;-78
2021/01/14 17:34:02;;;;;;;12.73;9.63;;;;;;;4.52;54.97;98139.34;8369862;28;20245;-78
2021/01/14 17:38:04;;;;;;;11.87;7.70;;;;;;;4.48;55.04;98149.63;8368117;28;20224;-78
2021/01/14 17:42:06;;;;;;;11.30;8.57;;;;;;;4.59;55.28;98139.22;8366867;28;20210;-78
2021/01/14 17:46:11;;;;;;;11.93;6.83;;;;;;;4.63;55.15;98140.84;8367516;28;20199;-78
2021/01/14 17:50:18;;;;;;;9.97;6.20;;;;;;;4.59;55.13;98128.94;8367172;28;20184;-78
2021/01/14 17:54:20;;;;;;;8.03;5.10;;;;;;;4.60;55.35;98130.63;8371861;28;20188;-79
2021/01/14 17:58:23;;;;;;;10.73;6.23;;;;;;;4.47;54.98;98132.56;8377220;28;20307;-78
2021/01/14 18:02:24;;;;;;;14.80;10.60;;;;;;;4.44;54.95;98130.06;8367178;28;20228;-78
2021/01/14 18:06:26;;;;;;;13.37;8.90;;;;;;;4.47;55.80;98129.16;8367449;28;20248;-78
2021/01/14 18:10:29;;;;;;;11.07;7.33;;;;;;;4.57;55.12;98124.69;8368132;28;20191;-78
2021/01/14 18:14:31;;;;;;;12.37;6.13;;;;;;;4.67;54.56;98128.81;8371145;28;20342;-78
2021/01/14 18:18:33;;;;;;;10.80;6.10;;;;;;;4.41;55.43;98131.81;8373491;28;20258;-79
2021/01/14 18:22:39;;;;;;;9.90;6.47;;;;;;;4.44;55.26;98145.44;8375395;28;20203;-78
2021/01/14 18:26:42;;;;;;;8.23;5.10;;;;;;;4.61;55.02;98128.94;8375094;28;20184;-79
2021/01/14 18:30:44;;;;;;;10.70;6.53;;;;;;;4.65;54.62;98128.00;8374561;28;20196;-78
2021/01/14 18:34:48;;;;;;;13.63;9.13;;;;;;;4.68;54.55;98121.09;8373641;28;20191;-78
2021/01/14 18:38:50;;;;;;;21.93;14.77;;;;;;;4.63;55.21;98114.34;8376292;28;20199;-78
2021/01/14 18:42:52;;;;;;;20.27;14.10;;;;;;;4.62;55.79;98108.34;8383522;28;20191;-77
2021/01/14 18:46:54;;;;;;;20.67;17.87;;;;;;;4.55;55.81;98105.94;8404218;28;20229;-78
2021/01/14 18:50:56;;;;;;;31.47;22.80;;;;;;;4.50;55.92;98109.44;8405182;28;20199;-77
2021/01/14 18:54:58;;;;;;;56.73;40.40;;;;;;;4.47;56.15;98106.06;8391677;28;20195;-78
2021/01/14 18:59:02;;;;;;;52.20;36.37;;;;;;;4.45;56.50;98098.38;8382427;28;20191;-77
2021/01/14 19:03:04;;;;;;;22.43;16.27;;;;;;;4.43;56.38;98101.88;8392749;28;20196;-78
2021/01/14 19:07:09;;;;;;;19.07;12.47;;;;;;;4.43;56.17;98110.41;8390058;28;20199;-77
2021/01/14 19:11:11;;;;;;;19.43;12.77;;;;;;;4.49;56.17;98100.06;8389905;28;20208;-77
2021/01/14 19:15:14;;;;;;;16.73;12.33;;;;;;;4.45;56.16;98108.66;8383305;28;20649;-78
2021/01/14 19:19:16;;;;;;;18.03;12.37;;;;;;;4.48;56.23;98107.78;8386284;28;20634;-78